sensor_id;sensor_type;location;lat;lon;timestamp;pressure;altitude;pressure_sealevel;temperature;humidity
31225;BME280;17847;31.524;74.366;2023-02-04T00:00:54;98886.34;;;13.81;73.46
31225;BME280;17847;31.524;74.366;2023-02-04T00:03:31;98891.69;;;13.75;73.78
31225;BME280;17847;31.524;74.366;2023-02-04T00:06:26;98897.25;;;13.67;73.63
31225;BME280;17847;31.524;74.366;2023-02-04T00:09:09;98892.13;;;13.65;74.06
31225;BME280;17847;31.524;74.366;2023-02-04T00:11:58;98887.19;;;13.69;73.83
31225;BME280;17847;31.524;74.366;2023-02-04T00:14:40;98888.63;;;13.71;73.89
31225;BME280;17847;31.524;74.366;2023-02-04T00:17:29;98894.56;;;13.67;74.00
31225;BME280;17847;31.524;74.366;2023-02-04T00:20:12;98894.56;;;13.67;74.35
31225;BME280;17847;31.524;74.366;2023-02-04T00:23:01;98900.31;;;13.57;74.55
31225;BME280;17847;31.524;74.366;2023-02-04T00:25:43;98903.19;;;13.56;73.98
31225;BME280;17847;31.524;74.366;2023-02-04T00:28:32;98911.56;;;13.46;73.83
31225;BME280;17847;31.524;74.366;2023-02-04T00:31:08;98909.94;;;13.52;74.35
31225;BME280;17847;31.524;74.366;2023-02-04T00:34:03;98905.25;;;13.54;73.99
31225;BME280;17847;31.524;74.366;2023-02-04T00:36:46;98910.13;;;13.50;74.63
31225;BME280;17847;31.524;74.366;2023-02-04T00:39:34;98908.09;;;13.32;74.58
31225;BME280;17847;31.524;74.366;2023-02-04T00:42:18;98901.13;;;13.38;75.02
31225;BME280;17847;31.524;74.366;2023-02-04T00:45:08;98904.19;;;13.41;74.57
31225;BME280;17847;31.524;74.366;2023-02-04T00:47:51;98899.09;;;13.53;74.20
31225;BME280;17847;31.524;74.366;2023-02-04T00:50:39;98899.91;;;13.47;74.75
31225;BME280;17847;31.524;74.366;2023-02-04T00:53:22;98898.50;;;13.44;74.73
31225;BME280;17847;31.524;74.366;2023-02-04T00:56:10;98907.28;;;13.52;74.58
31225;BME280;17847;31.524;74.366;2023-02-04T00:58:53;98906.03;;;13.28;74.41
31225;BME280;17847;31.524;74.366;2023-02-04T01:01:41;98896.66;;;13.38;75.06
31225;BME280;17847;31.524;74.366;2023-02-04T01:04:24;98906.47;;;13.31;75.01
31225;BME280;17847;31.524;74.366;2023-02-04T01:07:12;98893.38;;;13.36;75.05
31225;BME280;17847;31.524;74.366;2023-02-04T01:09:55;98897.44;;;13.19;74.91
31225;BME280;17847;31.524;74.366;2023-02-04T01:12:43;98905.38;;;13.06;75.31
31225;BME280;17847;31.524;74.366;2023-02-04T01:15:26;98901.72;;;13.07;75.49
31225;BME280;17847;31.524;74.366;2023-02-04T01:18:21;98905.66;;;13.18;75.76
31225;BME280;17847;31.524;74.366;2023-02-04T01:20:57;98907.84;;;13.07;75.53
31225;BME280;17847;31.524;74.366;2023-02-04T01:23:53;98906.00;;;13.01;76.07
31225;BME280;17847;31.524;74.366;2023-02-04T01:26:54;98913.13;;;12.88;76.51
31225;BME280;17847;31.524;74.366;2023-02-04T01:29:43;98913.97;;;12.95;76.24
31225;BME280;17847;31.524;74.366;2023-02-04T01:32:32;98918.00;;;12.65;76.96
31225;BME280;17847;31.524;74.366;2023-02-04T01:35:28;98923.97;;;12.73;76.74
31225;BME280;17847;31.524;74.366;2023-02-04T01:38:11;98932.13;;;12.72;77.21
31225;BME280;17847;31.524;74.366;2023-02-04T01:40:59;98935.16;;;12.62;77.33
31225;BME280;17847;31.524;74.366;2023-02-04T01:43:42;98938.41;;;12.51;77.30
31225;BME280;17847;31.524;74.366;2023-02-04T01:46:30;98938.03;;;12.67;77.38
31225;BME280;17847;31.524;74.366;2023-02-04T01:49:16;98933.09;;;12.51;77.40
31225;BME280;17847;31.524;74.366;2023-02-04T01:52:05;98953.28;;;12.45;77.81
31225;BME280;17847;31.524;74.366;2023-02-04T01:54:48;98947.78;;;12.47;77.57
31225;BME280;17847;31.524;74.366;2023-02-04T01:57:45;98957.53;;;12.40;78.05
31225;BME280;17847;31.524;74.366;2023-02-04T02:00:31;98954.47;;;12.36;78.22
31225;BME280;17847;31.524;74.366;2023-02-04T02:03:20;98962.78;;;12.61;77.68
31225;BME280;17847;31.524;74.366;2023-02-04T02:06:02;98967.91;;;12.69;77.10
31225;BME280;17847;31.524;74.366;2023-02-04T02:08:52;98968.13;;;12.81;76.50
31225;BME280;17847;31.524;74.366;2023-02-04T02:11:35;98975.13;;;13.01;75.82
31225;BME280;17847;31.524;74.366;2023-02-04T02:14:24;98980.63;;;12.87;76.53
31225;BME280;17847;31.524;74.366;2023-02-04T02:17:07;98980.84;;;12.92;75.70
31225;BME280;17847;31.524;74.366;2023-02-04T02:19:56;98982.44;;;12.73;76.64
31225;BME280;17847;31.524;74.366;2023-02-04T02:25:34;98985.81;;;13.15;76.03
31225;BME280;17847;31.524;74.366;2023-02-04T02:28:19;98983.72;;;13.10;76.22
31225;BME280;17847;31.524;74.366;2023-02-04T02:31:08;98982.16;;;13.22;75.92
31225;BME280;17847;31.524;74.366;2023-02-04T02:33:57;98990.72;;;13.11;76.17
31225;BME280;17847;31.524;74.366;2023-02-04T02:36:52;98994.78;;;13.07;76.21
31225;BME280;17847;31.524;74.366;2023-02-04T02:39:38;98999.94;;;13.15;76.43
31225;BME280;17847;31.524;74.366;2023-02-04T02:42:35;98998.78;;;13.44;76.37
31225;BME280;17847;31.524;74.366;2023-02-04T02:45:25;98999.16;;;13.41;75.80
31225;BME280;17847;31.524;74.366;2023-02-04T02:48:16;99012.28;;;13.49;75.62
31225;BME280;17847;31.524;74.366;2023-02-04T02:50:52;99006.75;;;13.64;75.10
31225;BME280;17847;31.524;74.366;2023-02-04T02:53:49;99010.03;;;13.79;74.53
31225;BME280;17847;31.524;74.366;2023-02-04T02:56:25;99017.59;;;14.08;73.64
31225;BME280;17847;31.524;74.366;2023-02-04T02:59:21;99016.94;;;14.26;72.48
31225;BME280;17847;31.524;74.366;2023-02-04T03:02:00;99021.25;;;14.40;72.85
31225;BME280;17847;31.524;74.366;2023-02-04T03:04:57;99029.19;;;14.53;72.76
31225;BME280;17847;31.524;74.366;2023-02-04T03:07:35;99031.63;;;14.68;72.31
31225;BME280;17847;31.524;74.366;2023-02-04T03:10:31;99029.34;;;14.78;71.50
31225;BME280;17847;31.524;74.366;2023-02-04T03:13:15;99033.34;;;14.94;70.19
31225;BME280;17847;31.524;74.366;2023-02-04T03:16:05;99043.69;;;15.21;69.28
31225;BME280;17847;31.524;74.366;2023-02-04T03:18:49;99044.00;;;15.38;68.11
31225;BME280;17847;31.524;74.366;2023-02-04T03:21:37;99048.34;;;15.70;67.03
31225;BME280;17847;31.524;74.366;2023-02-04T03:24:22;99045.44;;;16.40;63.38
31225;BME280;17847;31.524;74.366;2023-02-04T03:27:10;99037.97;;;17.03;61.77
31225;BME280;17847;31.524;74.366;2023-02-04T03:29:53;99054.72;;;17.58;59.46
31225;BME280;17847;31.524;74.366;2023-02-04T03:32:48;99043.88;;;18.18;56.91
31225;BME280;17847;31.524;74.366;2023-02-04T03:35:44;99052.16;;;18.63;57.11
31225;BME280;17847;31.524;74.366;2023-02-04T03:38:26;99053.69;;;18.99;55.45
31225;BME280;17847;31.524;74.366;2023-02-04T03:41:15;99057.75;;;19.41;54.25
31225;BME280;17847;31.524;74.366;2023-02-04T03:43:57;99053.56;;;19.62;52.79
31225;BME280;17847;31.524;74.366;2023-02-04T03:46:46;99059.00;;;20.12;51.14
31225;BME280;17847;31.524;74.366;2023-02-04T03:49:30;99066.63;;;20.20;52.15
31225;BME280;17847;31.524;74.366;2023-02-04T03:52:19;99067.59;;;20.64;52.83
31225;BME280;17847;31.524;74.366;2023-02-04T03:54:55;99070.81;;;21.04;49.75
31225;BME280;17847;31.524;74.366;2023-02-04T03:57:50;99069.81;;;21.32;47.75
31225;BME280;17847;31.524;74.366;2023-02-04T04:00:33;99071.25;;;21.67;45.70
31225;BME280;17847;31.524;74.366;2023-02-04T04:03:21;99075.63;;;21.78;47.47
31225;BME280;17847;31.524;74.366;2023-02-04T04:06:03;99078.28;;;21.94;46.96
31225;BME280;17847;31.524;74.366;2023-02-04T04:08:53;99081.41;;;22.18;44.69
31225;BME280;17847;31.524;74.366;2023-02-04T04:11:36;99074.78;;;22.36;41.89
31225;BME280;17847;31.524;74.366;2023-02-04T04:14:24;99076.50;;;22.47;40.67
31225;BME280;17847;31.524;74.366;2023-02-04T04:17:07;99082.25;;;22.61;41.92
31225;BME280;17847;31.524;74.366;2023-02-04T04:20:03;99078.38;;;22.89;38.49
31225;BME280;17847;31.524;74.366;2023-02-04T04:22:45;99085.59;;;23.35;40.29
31225;BME280;17847;31.524;74.366;2023-02-04T04:25:34;99089.75;;;23.63;37.65
31225;BME280;17847;31.524;74.366;2023-02-04T04:28:17;99087.53;;;23.55;36.51
31225;BME280;17847;31.524;74.366;2023-02-04T04:31:05;99089.16;;;23.51;35.50
31225;BME280;17847;31.524;74.366;2023-02-04T04:33:54;99095.97;;;23.58;35.26
31225;BME280;17847;31.524;74.366;2023-02-04T04:36:49;99105.97;;;23.68;36.21
31225;BME280;17847;31.524;74.366;2023-02-04T04:39:32;99110.31;;;23.74;32.51
31225;BME280;17847;31.524;74.366;2023-02-04T04:42:20;99113.31;;;24.13;35.73
31225;BME280;17847;31.524;74.366;2023-02-04T04:45:05;99119.03;;;24.11;35.32
31225;BME280;17847;31.524;74.366;2023-02-04T04:47:55;99118.22;;;24.21;35.01
31225;BME280;17847;31.524;74.366;2023-02-04T04:50:38;99123.38;;;24.17;36.08
31225;BME280;17847;31.524;74.366;2023-02-04T04:53:27;99123.38;;;24.33;36.56
31225;BME280;17847;31.524;74.366;2023-02-04T04:56:10;99120.63;;;24.73;34.63
31225;BME280;17847;31.524;74.366;2023-02-04T04:58:59;99131.78;;;24.46;34.08
31225;BME280;17847;31.524;74.366;2023-02-04T05:01:42;99129.59;;;24.64;35.50
31225;BME280;17847;31.524;74.366;2023-02-04T05:04:30;99138.25;;;24.60;34.31
31225;BME280;17847;31.524;74.366;2023-02-04T05:07:13;99135.53;;;24.91;34.35
31225;BME280;17847;31.524;74.366;2023-02-04T05:10:08;99137.44;;;24.60;34.01
31225;BME280;17847;31.524;74.366;2023-02-04T05:12:51;99140.16;;;24.55;33.99
31225;BME280;17847;31.524;74.366;2023-02-04T05:15:39;99148.81;;;24.62;34.72
31225;BME280;17847;31.524;74.366;2023-02-04T05:18:22;99143.94;;;24.64;33.72
31225;BME280;17847;31.524;74.366;2023-02-04T05:21:18;99140.66;;;24.92;32.76
31225;BME280;17847;31.524;74.366;2023-02-04T05:23:54;99143.66;;;24.91;33.28
31225;BME280;17847;31.524;74.366;2023-02-04T05:26:49;99150.38;;;24.83;33.39
31225;BME280;17847;31.524;74.366;2023-02-04T05:29:31;99151.50;;;24.87;33.29
31225;BME280;17847;31.524;74.366;2023-02-04T05:32:20;99146.25;;;25.26;32.70
31225;BME280;17847;31.524;74.366;2023-02-04T05:35:15;99146.72;;;25.38;32.58
31225;BME280;17847;31.524;74.366;2023-02-04T05:37:58;99135.19;;;25.02;31.64
31225;BME280;17847;31.524;74.366;2023-02-04T05:40:46;99139.16;;;25.35;34.09
31225;BME280;17847;31.524;74.366;2023-02-04T05:43:29;99142.97;;;25.29;31.78
31225;BME280;17847;31.524;74.366;2023-02-04T05:46:17;99147.00;;;25.37;32.33
31225;BME280;17847;31.524;74.366;2023-02-04T05:49:00;99150.41;;;24.98;31.21
31225;BME280;17847;31.524;74.366;2023-02-04T05:51:48;99147.91;;;25.17;31.27
31225;BME280;17847;31.524;74.366;2023-02-04T05:54:31;99128.13;;;25.07;32.12
31225;BME280;17847;31.524;74.366;2023-02-04T05:57:19;99130.00;;;25.16;31.41
31225;BME280;17847;31.524;74.366;2023-02-04T06:00:02;99127.56;;;25.15;33.16
31225;BME280;17847;31.524;74.366;2023-02-04T06:02:52;99123.69;;;25.36;31.49
31225;BME280;17847;31.524;74.366;2023-02-04T06:05:35;99120.69;;;25.37;31.94
31225;BME280;17847;31.524;74.366;2023-02-04T06:08:24;99111.69;;;25.47;31.22
31225;BME280;17847;31.524;74.366;2023-02-04T06:11:07;99117.09;;;25.52;32.36
31225;BME280;17847;31.524;74.366;2023-02-04T06:13:57;99105.94;;;25.04;33.71
31225;BME280;17847;31.524;74.366;2023-02-04T06:16:40;99097.72;;;25.20;31.40
31225;BME280;17847;31.524;74.366;2023-02-04T06:19:29;99100.09;;;25.36;31.69
31225;BME280;17847;31.524;74.366;2023-02-04T06:22:12;99106.41;;;25.22;31.46
31225;BME280;17847;31.524;74.366;2023-02-04T06:25:00;99094.38;;;25.38;32.16
31225;BME280;17847;31.524;74.366;2023-02-04T06:27:43;99091.06;;;25.51;30.96
31225;BME280;17847;31.524;74.366;2023-02-04T06:30:31;99088.28;;;25.12;31.51
31225;BME280;17847;31.524;74.366;2023-02-04T06:33:20;99080.25;;;25.41;31.73
31225;BME280;17847;31.524;74.366;2023-02-04T06:36:16;99077.81;;;25.44;33.05
31225;BME280;17847;31.524;74.366;2023-02-04T06:38:59;99072.16;;;25.36;31.75
31225;BME280;17847;31.524;74.366;2023-02-04T06:41:47;99066.78;;;25.31;33.28
31225;BME280;17847;31.524;74.366;2023-02-04T06:44:30;99075.13;;;25.39;32.02
31225;BME280;17847;31.524;74.366;2023-02-04T06:47:18;99061.03;;;25.37;34.01
31225;BME280;17847;31.524;74.366;2023-02-04T06:50:01;99057.94;;;25.59;33.74
31225;BME280;17847;31.524;74.366;2023-02-04T06:52:49;99054.09;;;25.70;33.10
31225;BME280;17847;31.524;74.366;2023-02-04T06:55:32;99057.75;;;25.40;30.92
31225;BME280;17847;31.524;74.366;2023-02-04T06:58:20;99050.41;;;25.46;31.46
31225;BME280;17847;31.524;74.366;2023-02-04T07:01:03;99047.59;;;25.66;32.40
31225;BME280;17847;31.524;74.366;2023-02-04T07:03:52;99050.88;;;25.58;33.74
31225;BME280;17847;31.524;74.366;2023-02-04T07:06:35;99038.84;;;25.30;30.14
31225;BME280;17847;31.524;74.366;2023-02-04T07:09:23;99045.56;;;25.38;31.01
31225;BME280;17847;31.524;74.366;2023-02-04T07:12:06;99047.16;;;25.49;30.47
31225;BME280;17847;31.524;74.366;2023-02-04T07:15:01;99042.00;;;25.47;31.88
31225;BME280;17847;31.524;74.366;2023-02-04T07:17:44;99030.19;;;25.23;34.59
31225;BME280;17847;31.524;74.366;2023-02-04T07:20:33;99027.97;;;25.35;35.84
31225;BME280;17847;31.524;74.366;2023-02-04T07:23:29;99017.91;;;25.36;33.35
31225;BME280;17847;31.524;74.366;2023-02-04T07:26:12;99021.13;;;25.43;34.15
31225;BME280;17847;31.524;74.366;2023-02-04T07:29:00;99015.94;;;25.08;34.02
31225;BME280;17847;31.524;74.366;2023-02-04T07:31:54;99005.66;;;24.99;35.11
31225;BME280;17847;31.524;74.366;2023-02-04T07:34:42;99000.84;;;24.86;36.92
31225;BME280;17847;31.524;74.366;2023-02-04T07:37:25;98994.06;;;24.89;33.30
31225;BME280;17847;31.524;74.366;2023-02-04T07:40:13;98987.31;;;24.86;37.41
31225;BME280;17847;31.524;74.366;2023-02-04T07:42:56;98982.94;;;24.95;37.71
31225;BME280;17847;31.524;74.366;2023-02-04T07:45:45;98980.53;;;24.79;36.97
31225;BME280;17847;31.524;74.366;2023-02-04T07:48:28;98975.69;;;24.71;36.84
31225;BME280;17847;31.524;74.366;2023-02-04T07:51:16;98971.59;;;24.78;37.30
31225;BME280;17847;31.524;74.366;2023-02-04T07:54:01;98969.72;;;24.74;35.87
31225;BME280;17847;31.524;74.366;2023-02-04T07:56:49;98961.31;;;24.70;35.11
31225;BME280;17847;31.524;74.366;2023-02-04T07:59:32;98948.06;;;24.69;36.69
31225;BME280;17847;31.524;74.366;2023-02-04T08:02:20;98952.44;;;24.59;37.74
31225;BME280;17847;31.524;74.366;2023-02-04T08:05:03;98947.88;;;24.55;36.81
31225;BME280;17847;31.524;74.366;2023-02-04T08:07:52;98938.13;;;24.54;38.93
31225;BME280;17847;31.524;74.366;2023-02-04T08:10:35;98925.97;;;24.41;37.52
31225;BME280;17847;31.524;74.366;2023-02-04T08:13:23;98925.13;;;24.56;34.87
31225;BME280;17847;31.524;74.366;2023-02-04T08:16:06;98922.34;;;24.61;35.62
31225;BME280;17847;31.524;74.366;2023-02-04T08:18:54;98911.38;;;24.37;37.98
31225;BME280;17847;31.524;74.366;2023-02-04T08:21:37;98907.63;;;24.23;39.85
31225;BME280;17847;31.524;74.366;2023-02-04T08:24:25;98895.72;;;24.29;36.33
31225;BME280;17847;31.524;74.366;2023-02-04T08:27:08;98895.63;;;24.44;35.41
31225;BME280;17847;31.524;74.366;2023-02-04T08:29:56;98892.06;;;24.54;37.57
31225;BME280;17847;31.524;74.366;2023-02-04T08:32:45;98881.34;;;24.34;36.36
31225;BME280;17847;31.524;74.366;2023-02-04T08:35:50;98885.09;;;24.43;35.58
31225;BME280;17847;31.524;74.366;2023-02-04T08:38:45;98880.31;;;24.25;38.06
31225;BME280;17847;31.524;74.366;2023-02-04T08:41:21;98877.34;;;24.16;35.97
31225;BME280;17847;31.524;74.366;2023-02-04T08:44:16;98874.66;;;23.96;40.94
31225;BME280;17847;31.524;74.366;2023-02-04T08:46:59;98862.78;;;23.87;39.11
31225;BME280;17847;31.524;74.366;2023-02-04T08:49:48;98854.97;;;23.85;38.99
31225;BME280;17847;31.524;74.366;2023-02-04T08:52:31;98852.81;;;23.77;40.00
31225;BME280;17847;31.524;74.366;2023-02-04T08:55:26;98854.19;;;23.69;37.93
31225;BME280;17847;31.524;74.366;2023-02-04T08:58:09;98853.66;;;23.57;37.78
31225;BME280;17847;31.524;74.366;2023-02-04T09:00:58;98840.91;;;23.68;35.23
31225;BME280;17847;31.524;74.366;2023-02-04T09:03:41;98847.44;;;23.57;40.78
31225;BME280;17847;31.524;74.366;2023-02-04T09:06:29;98841.50;;;23.55;34.30
31225;BME280;17847;31.524;74.366;2023-02-04T09:09:12;98836.63;;;23.67;36.56
31225;BME280;17847;31.524;74.366;2023-02-04T09:12:03;98840.41;;;23.51;37.46
31225;BME280;17847;31.524;74.366;2023-02-04T09:14:39;98832.81;;;23.68;36.54
31225;BME280;17847;31.524;74.366;2023-02-04T09:17:34;98826.81;;;23.81;35.76
31225;BME280;17847;31.524;74.366;2023-02-04T09:20:11;98831.16;;;23.82;37.11
31225;BME280;17847;31.524;74.366;2023-02-04T09:23:06;98824.44;;;23.69;39.72
31225;BME280;17847;31.524;74.366;2023-02-04T09:25:49;98831.50;;;23.50;37.15
31225;BME280;17847;31.524;74.366;2023-02-04T09:28:38;98836.91;;;23.50;36.54
31225;BME280;17847;31.524;74.366;2023-02-04T09:31:14;98829.88;;;23.54;37.85
31225;BME280;17847;31.524;74.366;2023-02-04T09:34:10;98833.94;;;23.52;38.84
31225;BME280;17847;31.524;74.366;2023-02-04T09:37:06;98829.88;;;23.49;37.61
31225;BME280;17847;31.524;74.366;2023-02-04T09:39:49;98828.50;;;23.42;39.36
31225;BME280;17847;31.524;74.366;2023-02-04T09:42:37;98830.69;;;23.29;39.14
31225;BME280;17847;31.524;74.366;2023-02-04T09:45:28;98833.13;;;23.36;35.95
31225;BME280;17847;31.524;74.366;2023-02-04T09:48:17;98830.16;;;23.53;36.44
31225;BME280;17847;31.524;74.366;2023-02-04T09:51:05;98828.00;;;23.45;39.01
31225;BME280;17847;31.524;74.366;2023-02-04T09:54:19;98823.91;;;23.42;36.29
31225;BME280;17847;31.524;74.366;2023-02-04T09:57:18;98816.09;;;23.51;36.96
31225;BME280;17847;31.524;74.366;2023-02-04T10:00:01;98819.03;;;23.59;36.69
31225;BME280;17847;31.524;74.366;2023-02-04T10:02:49;98815.53;;;23.59;37.31
31225;BME280;17847;31.524;74.366;2023-02-04T10:05:30;98812.81;;;23.59;36.17
31225;BME280;17847;31.524;74.366;2023-02-04T10:08:30;98806.88;;;23.57;36.66
31225;BME280;17847;31.524;74.366;2023-02-04T10:11:15;98809.28;;;23.68;36.12
31225;BME280;17847;31.524;74.366;2023-02-04T10:14:12;98803.63;;;23.65;35.65
31225;BME280;17847;31.524;74.366;2023-02-04T10:16:57;98801.19;;;23.63;34.85
31225;BME280;17847;31.524;74.366;2023-02-04T10:19:47;98803.38;;;23.56;35.27
31225;BME280;17847;31.524;74.366;2023-02-04T10:22:23;98805.81;;;23.58;35.61
31225;BME280;17847;31.524;74.366;2023-02-04T10:25:22;98804.19;;;23.57;35.27
31225;BME280;17847;31.524;74.366;2023-02-04T10:28:05;98798.22;;;23.55;35.32
31225;BME280;17847;31.524;74.366;2023-02-04T10:30:53;98796.88;;;23.57;35.31
31225;BME280;17847;31.524;74.366;2023-02-04T10:33:29;98792.56;;;23.56;35.21
31225;BME280;17847;31.524;74.366;2023-02-04T10:36:26;98788.75;;;23.42;36.29
31225;BME280;17847;31.524;74.366;2023-02-04T10:42:00;98794.47;;;23.31;37.06
31225;BME280;17847;31.524;74.366;2023-02-04T10:44:36;98788.25;;;23.25;36.11
31225;BME280;17847;31.524;74.366;2023-02-04T10:47:31;98790.13;;;23.29;35.87
31225;BME280;17847;31.524;74.366;2023-02-04T10:50:16;98788.25;;;23.30;35.96
31225;BME280;17847;31.524;74.366;2023-02-04T10:53:16;98785.03;;;23.18;37.19
31225;BME280;17847;31.524;74.366;2023-02-04T10:56:19;98791.50;;;23.22;36.28
31225;BME280;17847;31.524;74.366;2023-02-04T10:59:22;98783.66;;;23.20;37.36
31225;BME280;17847;31.524;74.366;2023-02-04T11:05:28;98776.13;;;23.02;36.16
31225;BME280;17847;31.524;74.366;2023-02-04T11:08:21;98783.97;;;22.99;36.72
31225;BME280;17847;31.524;74.366;2023-02-04T11:11:15;98785.03;;;22.93;37.70
31225;BME280;17847;31.524;74.366;2023-02-04T11:14:01;98784.25;;;22.92;37.13
31225;BME280;17847;31.524;74.366;2023-02-04T11:16:49;98783.94;;;22.89;37.30
31225;BME280;17847;31.524;74.366;2023-02-04T11:19:38;98785.31;;;22.81;37.30
31225;BME280;17847;31.524;74.366;2023-02-04T11:22:40;98789.06;;;22.75;38.50
31225;BME280;17847;31.524;74.366;2023-02-04T11:25:33;98778.81;;;22.72;38.26
31225;BME280;17847;31.524;74.366;2023-02-04T11:28:25;98773.38;;;22.62;39.13
31225;BME280;17847;31.524;74.366;2023-02-04T11:31:38;98784.72;;;22.59;39.38
31225;BME280;17847;31.524;74.366;2023-02-04T11:34:29;98783.88;;;22.53;39.19
31225;BME280;17847;31.524;74.366;2023-02-04T11:37:26;98786.59;;;22.48;40.64
31225;BME280;17847;31.524;74.366;2023-02-04T11:43:13;98781.97;;;22.28;40.63
31225;BME280;17847;31.524;74.366;2023-02-04T11:46:09;98787.88;;;22.20;40.15
31225;BME280;17847;31.524;74.366;2023-02-04T11:48:55;98786.50;;;22.18;40.80
31225;BME280;17847;31.524;74.366;2023-02-04T11:52:13;98784.88;;;22.12;41.23
31225;BME280;17847;31.524;74.366;2023-02-04T11:54:59;98790.81;;;22.04;42.29
31225;BME280;17847;31.524;74.366;2023-02-04T11:57:53;98792.63;;;21.93;42.36
31225;BME280;17847;31.524;74.366;2023-02-04T12:00:36;98787.19;;;21.88;42.71
31225;BME280;17847;31.524;74.366;2023-02-04T12:03:30;98792.31;;;21.84;43.26
31225;BME280;17847;31.524;74.366;2023-02-04T12:06:08;98787.44;;;21.81;43.92
31225;BME280;17847;31.524;74.366;2023-02-04T12:09:23;98792.03;;;21.81;44.21
31225;BME280;17847;31.524;74.366;2023-02-04T12:12:07;98783.06;;;21.70;44.69
31225;BME280;17847;31.524;74.366;2023-02-04T12:15:13;98783.53;;;21.57;45.25
31225;BME280;17847;31.524;74.366;2023-02-04T12:18:09;98783.78;;;21.50;45.63
31225;BME280;17847;31.524;74.366;2023-02-04T12:20:59;98787.72;;;21.38;46.23
31225;BME280;17847;31.524;74.366;2023-02-04T12:23:42;98778.50;;;21.24;46.70
31225;BME280;17847;31.524;74.366;2023-02-04T12:26:30;98784.66;;;21.19;45.79
31225;BME280;17847;31.524;74.366;2023-02-04T12:29:13;98783.28;;;21.17;46.83
31225;BME280;17847;31.524;74.366;2023-02-04T12:32:02;98783.97;;;21.07;47.09
31225;BME280;17847;31.524;74.366;2023-02-04T12:34:52;98793.13;;;21.01;46.86
31225;BME280;17847;31.524;74.366;2023-02-04T12:37:34;98794.69;;;20.97;47.65
31225;BME280;17847;31.524;74.366;2023-02-04T12:40:22;98789.50;;;20.90;46.67
31225;BME280;17847;31.524;74.366;2023-02-04T12:43:05;98786.78;;;20.85;48.06
31225;BME280;17847;31.524;74.366;2023-02-04T12:45:54;98792.94;;;20.81;47.79
31225;BME280;17847;31.524;74.366;2023-02-04T12:48:37;98798.78;;;20.73;48.28
31225;BME280;17847;31.524;74.366;2023-02-04T12:51:28;98795.56;;;20.71;48.56
31225;BME280;17847;31.524;74.366;2023-02-04T12:54:11;98797.44;;;20.70;49.01
31225;BME280;17847;31.524;74.366;2023-02-04T12:57:00;98798.19;;;20.66;49.56
31225;BME280;17847;31.524;74.366;2023-02-04T12:59:37;98804.81;;;20.58;50.03
31225;BME280;17847;31.524;74.366;2023-02-04T13:02:33;98805.50;;;20.43;50.33
31225;BME280;17847;31.524;74.366;2023-02-04T13:05:15;98810.88;;;20.43;50.17
31225;BME280;17847;31.524;74.366;2023-02-04T13:08:04;98811.66;;;20.39;51.11
31225;BME280;17847;31.524;74.366;2023-02-04T13:10:47;98817.22;;;20.32;50.55
31225;BME280;17847;31.524;74.366;2023-02-04T13:13:44;98813.97;;;20.30;51.22
31225;BME280;17847;31.524;74.366;2023-02-04T13:16:20;98818.69;;;20.23;50.72
31225;BME280;17847;31.524;74.366;2023-02-04T13:19:15;98812.00;;;20.26;51.23
31225;BME280;17847;31.524;74.366;2023-02-04T13:21:58;98810.63;;;20.23;51.16
31225;BME280;17847;31.524;74.366;2023-02-04T13:24:47;98812.69;;;20.16;51.42
31225;BME280;17847;31.524;74.366;2023-02-04T13:27:30;98812.47;;;20.17;51.59
31225;BME280;17847;31.524;74.366;2023-02-04T13:30:18;98812.13;;;20.14;51.33
31225;BME280;17847;31.524;74.366;2023-02-04T13:33:01;98808.06;;;20.11;51.55
31225;BME280;17847;31.524;74.366;2023-02-04T13:35:56;98810.47;;;20.08;51.70
31225;BME280;17847;31.524;74.366;2023-02-04T13:38:40;98815.84;;;20.08;52.33
31225;BME280;17847;31.524;74.366;2023-02-04T13:41:23;98820.41;;;20.07;51.61
31225;BME280;17847;31.524;74.366;2023-02-04T13:44:11;98819.81;;;20.05;51.64
31225;BME280;17847;31.524;74.366;2023-02-04T13:46:54;98816.59;;;20.03;52.18
31225;BME280;17847;31.524;74.366;2023-02-04T13:49:42;98829.34;;;19.91;52.63
31225;BME280;17847;31.524;74.366;2023-02-04T13:52:25;98829.13;;;19.76;54.02
31225;BME280;17847;31.524;74.366;2023-02-04T13:55:14;98830.03;;;19.82;53.31
31225;BME280;17847;31.524;74.366;2023-02-04T13:57:57;98835.88;;;19.79;53.62
31225;BME280;17847;31.524;74.366;2023-02-04T14:00:45;98842.44;;;19.66;53.95
31225;BME280;17847;31.524;74.366;2023-02-04T14:03:29;98844.72;;;19.57;55.31
31225;BME280;17847;31.524;74.366;2023-02-04T14:06:17;98845.47;;;19.53;55.31
31225;BME280;17847;31.524;74.366;2023-02-04T14:09:03;98842.16;;;19.46;54.66
31225;BME280;17847;31.524;74.366;2023-02-04T14:11:52;98838.06;;;19.43;55.75
31225;BME280;17847;31.524;74.366;2023-02-04T14:14:35;98841.72;;;19.37;55.42
31225;BME280;17847;31.524;74.366;2023-02-04T14:17:23;98845.38;;;19.31;55.50
31225;BME280;17847;31.524;74.366;2023-02-04T14:20:06;98840.81;;;19.32;56.96
31225;BME280;17847;31.524;74.366;2023-02-04T14:22:54;98844.00;;;19.28;56.03
31225;BME280;17847;31.524;74.366;2023-02-04T14:25:37;98844.44;;;19.20;57.55
31225;BME280;17847;31.524;74.366;2023-02-04T14:28:26;98844.56;;;19.14;57.38
31225;BME280;17847;31.524;74.366;2023-02-04T14:31:09;98839.84;;;19.04;58.29
31225;BME280;17847;31.524;74.366;2023-02-04T14:33:57;98839.53;;;19.01;57.94
31225;BME280;17847;31.524;74.366;2023-02-04T14:36:40;98843.75;;;18.97;58.14
31225;BME280;17847;31.524;74.366;2023-02-04T14:39:28;98848.53;;;18.95;57.98
31225;BME280;17847;31.524;74.366;2023-02-04T14:42:11;98840.34;;;19.01;58.66
31225;BME280;17847;31.524;74.366;2023-02-04T14:44:59;98846.75;;;19.00;57.90
31225;BME280;17847;31.524;74.366;2023-02-04T14:47:42;98847.00;;;18.99;58.74